N314RS KDUG-KATY
Flight info
| Callsign | N314RS |
|---|---|
| Flight time | 2h 26m |
| Altitude | 45000 |
| Route | WOBUG J104 ONM/N0485F430 J57 ABQ/N0482F450 J13 FQF J10 LBF/N0492F430 YANKI/N0493F450 J114 NARLY |
| Aircraft | C750/M-SBDE3FGHRWXY/S |
Departure
| Time | 2026-05-04 01:24 |
|---|---|
| Airport | Bisbee Douglas International Airport (KDUG) |
Arrival
| Time | 2026-05-04 03:50 |
|---|---|
| Airport | Watertown Regional Airport (KATY) |
| Time | Latitude | Longitude | Altitude | Speed | Heading |
|---|---|---|---|---|---|
| 2026-05-04 00:57 | 31.45835 | -109.59814 | 4108 ft | 0 kts | 205° |
| 2026-05-04 01:14 | 31.45833 | -109.59825 | 4106 ft | 3 kts | 275° |
| 2026-05-04 01:14 | 31.45860 | -109.59850 | 4106 ft | 7 kts | 331° |
| 2026-05-04 01:14 | 31.45919 | -109.59883 | 4108 ft | 11 kts | 333° |
| 2026-05-04 01:15 | 31.45987 | -109.59953 | 4109 ft | 13 kts | 315° |
| 2026-05-04 01:15 | 31.46046 | -109.59988 | 4110 ft | 8 kts | 2° |
| 2026-05-04 01:15 | 31.46098 | -109.59986 | 4111 ft | 7 kts | 0° |
| 2026-05-04 01:15 | 31.46150 | -109.59986 | 4110 ft | 8 kts | 1° |
| 2026-05-04 01:16 | 31.46204 | -109.59985 | 4111 ft | 8 kts | 0° |
| 2026-05-04 01:16 | 31.46267 | -109.59985 | 4114 ft | 10 kts | 0° |
| 2026-05-04 01:16 | 31.46341 | -109.59983 | 4115 ft | 11 kts | 1° |
| 2026-05-04 01:16 | 31.46424 | -109.59984 | 4118 ft | 12 kts | 359° |
| 2026-05-04 01:17 | 31.46514 | -109.59985 | 4119 ft | 14 kts | 360° |
| 2026-05-04 01:17 | 31.46609 | -109.59985 | 4128 ft | 12 kts | 359° |
| 2026-05-04 01:17 | 31.46682 | -109.59988 | 4129 ft | 9 kts | 353° |
| 2026-05-04 01:17 | 31.46717 | -109.60032 | 4124 ft | 9 kts | 294° |
| 2026-05-04 01:18 | 31.46747 | -109.60112 | 4123 ft | 13 kts | 294° |
| 2026-05-04 01:18 | 31.46788 | -109.60218 | 4122 ft | 16 kts | 294° |
| 2026-05-04 01:18 | 31.46866 | -109.60287 | 4130 ft | 14 kts | 359° |
| 2026-05-04 01:18 | 31.46955 | -109.60289 | 4124 ft | 12 kts | 360° |
| 2026-05-04 01:19 | 31.47029 | -109.60289 | 4126 ft | 10 kts | 360° |
| 2026-05-04 01:19 | 31.47091 | -109.60290 | 4131 ft | 9 kts | 360° |
| 2026-05-04 01:19 | 31.47156 | -109.60290 | 4134 ft | 9 kts | 360° |
| 2026-05-04 01:19 | 31.47221 | -109.60290 | 4132 ft | 9 kts | 0° |
| 2026-05-04 01:20 | 31.47281 | -109.60291 | 4138 ft | 7 kts | 358° |
| 2026-05-04 01:20 | 31.47317 | -109.60292 | 4140 ft | 4 kts | 359° |
| 2026-05-04 01:20 | 31.47319 | -109.60292 | 4136 ft | 0 kts | 359° |
| 2026-05-04 01:21 | 31.47320 | -109.60292 | 4136 ft | 1 kts | 359° |
| 2026-05-04 01:22 | 31.47342 | -109.60293 | 4141 ft | 5 kts | 359° |
| 2026-05-04 01:22 | 31.47389 | -109.60310 | 4138 ft | 10 kts | 324° |
| 2026-05-04 01:22 | 31.47407 | -109.60401 | 4139 ft | 12 kts | 270° |
| 2026-05-04 01:22 | 31.47381 | -109.60454 | 4133 ft | 9 kts | 186° |
| 2026-05-04 01:23 | 31.47373 | -109.60454 | 4133 ft | 0 kts | 178° |
| 2026-05-04 01:23 | 31.47345 | -109.60453 | 4132 ft | 25 kts | 179° |
| 2026-05-04 01:23 | 31.46827 | -109.60453 | 4119 ft | 118 kts | 179° |
| 2026-05-04 01:23 | 31.45874 | -109.60452 | 4371 ft | 143 kts | 181° |
| 2026-05-04 01:24 | 31.44864 | -109.60471 | 5045 ft | 146 kts | 180° |
| 2026-05-04 01:24 | 31.43830 | -109.60374 | 5578 ft | 152 kts | 178° |
| 2026-05-04 01:24 | 31.42769 | -109.60208 | 6168 ft | 153 kts | 176° |
| 2026-05-04 01:24 | 31.41721 | -109.60050 | 6747 ft | 151 kts | 177° |
| 2026-05-04 01:25 | 31.40680 | -109.59903 | 7382 ft | 153 kts | 178° |
| 2026-05-04 01:25 | 31.39544 | -109.59761 | 7714 ft | 176 kts | 177° |
| 2026-05-04 01:25 | 31.38250 | -109.59628 | 8098 ft | 201 kts | 178° |
| 2026-05-04 01:25 | 31.36767 | -109.59471 | 8566 ft | 227 kts | 177° |
| 2026-05-04 01:26 | 31.35113 | -109.59306 | 9029 ft | 251 kts | 178° |
| 2026-05-04 01:26 | 31.33371 | -109.58617 | 9365 ft | 284 kts | 148° |
| 2026-05-04 01:26 | 31.32196 | -109.56768 | 10180 ft | 298 kts | 115° |
| 2026-05-04 01:26 | 31.31918 | -109.54272 | 10466 ft | 330 kts | 87° |
| 2026-05-04 01:27 | 31.32770 | -109.51728 | 11027 ft | 342 kts | 58° |
| 2026-05-04 01:27 | 31.34227 | -109.49541 | 11890 ft | 342 kts | 50° |
| 2026-05-04 01:27 | 31.35792 | -109.47407 | 12578 ft | 348 kts | 49° |
| 2026-05-04 01:27 | 31.37383 | -109.45243 | 13333 ft | 352 kts | 48° |
| 2026-05-04 01:28 | 31.38979 | -109.43048 | 14042 ft | 357 kts | 48° |
| 2026-05-04 01:28 | 31.40607 | -109.40845 | 14683 ft | 359 kts | 44° |
| 2026-05-04 01:28 | 31.42701 | -109.39296 | 15177 ft | 357 kts | 17° |
| 2026-05-04 01:28 | 31.45075 | -109.38537 | 15959 ft | 351 kts | 8° |
| 2026-05-04 01:29 | 31.47470 | -109.37932 | 16636 ft | 356 kts | 8° |
| 2026-05-04 01:29 | 31.49836 | -109.37101 | 17297 ft | 363 kts | 15° |
| 2026-05-04 01:29 | 31.52192 | -109.35972 | 18027 ft | 368 kts | 18° |
| 2026-05-04 01:29 | 31.54575 | -109.34827 | 18673 ft | 371 kts | 15° |
| 2026-05-04 01:30 | 31.57018 | -109.33818 | 19285 ft | 374 kts | 13° |
| 2026-05-04 01:30 | 31.59501 | -109.32822 | 19890 ft | 380 kts | 13° |
| 2026-05-04 01:30 | 31.61995 | -109.31739 | 20593 ft | 384 kts | 14° |
| 2026-05-04 01:30 | 31.64510 | -109.30620 | 21204 ft | 389 kts | 13° |
| 2026-05-04 01:31 | 31.67068 | -109.29523 | 21841 ft | 394 kts | 12° |
| 2026-05-04 01:31 | 31.69656 | -109.28427 | 22552 ft | 396 kts | 12° |
| 2026-05-04 01:31 | 31.72256 | -109.27310 | 23223 ft | 402 kts | 12° |
| 2026-05-04 01:31 | 31.74898 | -109.26167 | 23707 ft | 408 kts | 12° |
| 2026-05-04 01:32 | 31.77573 | -109.25009 | 24282 ft | 411 kts | 12° |
| 2026-05-04 01:32 | 31.80225 | -109.23863 | 24917 ft | 413 kts | 11° |
| 2026-05-04 01:32 | 31.82931 | -109.22700 | 25471 ft | 416 kts | 11° |
| 2026-05-04 01:32 | 31.85657 | -109.21525 | 26062 ft | 417 kts | 11° |
| 2026-05-04 01:33 | 31.88395 | -109.20339 | 26595 ft | 422 kts | 11° |
| 2026-05-04 01:33 | 31.91166 | -109.19140 | 27179 ft | 426 kts | 11° |
| 2026-05-04 01:33 | 31.93952 | -109.17934 | 27733 ft | 429 kts | 10° |
| 2026-05-04 01:33 | 31.96774 | -109.16716 | 28278 ft | 433 kts | 10° |
| 2026-05-04 01:34 | 31.99609 | -109.15485 | 28867 ft | 436 kts | 10° |
| 2026-05-04 01:34 | 32.02470 | -109.14244 | 29386 ft | 440 kts | 10° |
| 2026-05-04 01:34 | 32.05358 | -109.12993 | 29896 ft | 444 kts | 9° |
| 2026-05-04 01:34 | 32.08271 | -109.11728 | 30352 ft | 447 kts | 9° |
| 2026-05-04 01:35 | 32.11199 | -109.10454 | 30829 ft | 450 kts | 9° |
| 2026-05-04 01:35 | 32.14108 | -109.09190 | 31285 ft | 452 kts | 9° |
| 2026-05-04 01:35 | 32.17067 | -109.07903 | 31758 ft | 455 kts | 8° |
| 2026-05-04 01:35 | 32.20045 | -109.06607 | 32221 ft | 458 kts | 8° |
| 2026-05-04 01:36 | 32.23042 | -109.05301 | 32706 ft | 460 kts | 8° |
| 2026-05-04 01:36 | 32.26051 | -109.03989 | 33176 ft | 463 kts | 7° |
| 2026-05-04 01:36 | 32.29080 | -109.02668 | 33647 ft | 465 kts | 7° |
| 2026-05-04 01:36 | 32.32124 | -109.01340 | 34086 ft | 468 kts | 7° |
| 2026-05-04 01:37 | 32.35186 | -109.00003 | 34429 ft | 470 kts | 7° |
| 2026-05-04 01:37 | 32.38245 | -108.98660 | 35018 ft | 467 kts | 7° |
| 2026-05-04 01:37 | 32.41285 | -108.97324 | 35594 ft | 465 kts | 6° |
| 2026-05-04 01:37 | 32.44311 | -108.96005 | 36119 ft | 463 kts | 6° |
| 2026-05-04 01:38 | 32.47298 | -108.94701 | 36636 ft | 463 kts | 6° |
| 2026-05-04 01:38 | 32.50311 | -108.93377 | 37186 ft | 462 kts | 6° |
| 2026-05-04 01:38 | 32.53315 | -108.92055 | 37763 ft | 460 kts | 5° |
| 2026-05-04 01:38 | 32.56299 | -108.90598 | 38267 ft | 472 kts | 11° |
| 2026-05-04 01:39 | 32.59188 | -108.88633 | 38776 ft | 487 kts | 19° |
| 2026-05-04 01:39 | 32.61918 | -108.86160 | 39231 ft | 501 kts | 28° |
| 2026-05-04 01:39 | 32.64457 | -108.83279 | 39704 ft | 505 kts | 33° |
| 2026-05-04 01:39 | 32.66958 | -108.80370 | 40182 ft | 503 kts | 33° |
| 2026-05-04 01:40 | 32.69466 | -108.77485 | 40643 ft | 501 kts | 33° |
| 2026-05-04 01:40 | 32.71969 | -108.74609 | 41086 ft | 500 kts | 33° |
| 2026-05-04 01:40 | 32.74461 | -108.71721 | 41537 ft | 500 kts | 34° |
| 2026-05-04 01:40 | 32.76943 | -108.68836 | 41930 ft | 499 kts | 34° |
| 2026-05-04 01:41 | 32.79423 | -108.65963 | 42342 ft | 497 kts | 34° |
| 2026-05-04 01:41 | 32.81893 | -108.63105 | 42780 ft | 495 kts | 35° |
| 2026-05-04 01:41 | 32.84362 | -108.60243 | 43110 ft | 496 kts | 35° |
| 2026-05-04 01:41 | 32.86826 | -108.57377 | 43475 ft | 495 kts | 36° |
| 2026-05-04 01:42 | 32.89251 | -108.54553 | 43899 ft | 494 kts | 36° |
| 2026-05-04 01:42 | 32.91704 | -108.51701 | 44287 ft | 492 kts | 36° |
| 2026-05-04 01:42 | 32.94152 | -108.48855 | 44633 ft | 492 kts | 36° |
| 2026-05-04 01:42 | 32.96591 | -108.46011 | 44897 ft | 490 kts | 36° |
| 2026-05-04 01:43 | 32.99043 | -108.43153 | 44909 ft | 497 kts | 36° |
| 2026-05-04 01:43 | 33.04043 | -108.37319 | 44931 ft | 509 kts | 37° |
| 2026-05-04 01:44 | 33.09143 | -108.31347 | 44947 ft | 520 kts | 37° |
| 2026-05-04 01:44 | 33.14349 | -108.25250 | 44967 ft | 528 kts | 37° |
| 2026-05-04 01:45 | 33.19635 | -108.19040 | 44962 ft | 538 kts | 37° |
| 2026-05-04 01:45 | 33.27614 | -108.09647 | 44961 ft | 539 kts | 37° |
| 2026-05-04 01:46 | 33.32955 | -108.03348 | 44956 ft | 540 kts | 37° |
| 2026-05-04 01:46 | 33.38303 | -107.97026 | 44955 ft | 540 kts | 37° |
| 2026-05-04 01:47 | 33.43636 | -107.90714 | 44949 ft | 539 kts | 37° |
| 2026-05-04 01:47 | 33.48963 | -107.84393 | 44950 ft | 539 kts | 38° |
| 2026-05-04 01:48 | 33.54254 | -107.78107 | 44945 ft | 539 kts | 38° |
| 2026-05-04 01:48 | 33.59572 | -107.71775 | 44950 ft | 539 kts | 38° |
| 2026-05-04 01:49 | 33.64886 | -107.65436 | 44941 ft | 538 kts | 38° |
| 2026-05-04 01:49 | 33.70203 | -107.59085 | 44941 ft | 539 kts | 38° |
| 2026-05-04 01:50 | 33.75517 | -107.52721 | 44950 ft | 540 kts | 38° |
| 2026-05-04 01:50 | 33.80830 | -107.46350 | 44951 ft | 540 kts | 38° |
| 2026-05-04 01:51 | 33.86116 | -107.40000 | 44948 ft | 542 kts | 38° |
| 2026-05-04 01:51 | 33.91446 | -107.33579 | 44946 ft | 541 kts | 38° |
| 2026-05-04 01:52 | 33.96768 | -107.27164 | 44976 ft | 543 kts | 38° |
| 2026-05-04 01:52 | 34.02098 | -107.20721 | 45010 ft | 542 kts | 38° |
| 2026-05-04 01:53 | 34.07420 | -107.14280 | 45021 ft | 543 kts | 38° |
| 2026-05-04 01:53 | 34.12753 | -107.07808 | 45032 ft | 542 kts | 38° |
| 2026-05-04 01:54 | 34.18028 | -107.01400 | 45033 ft | 542 kts | 38° |
| 2026-05-04 01:54 | 34.23338 | -106.94933 | 45013 ft | 541 kts | 38° |
| 2026-05-04 01:55 | 34.28728 | -106.88624 | 44958 ft | 535 kts | 31° |
| 2026-05-04 01:55 | 34.31738 | -106.86071 | 44945 ft | 524 kts | 22° |
| 2026-05-04 01:55 | 34.34952 | -106.84111 | 44923 ft | 512 kts | 13° |
| 2026-05-04 01:56 | 34.38287 | -106.82779 | 44913 ft | 500 kts | 4° |
| 2026-05-04 01:56 | 34.41672 | -106.82073 | 44909 ft | 488 kts | 356° |
| 2026-05-04 01:56 | 34.48308 | -106.81979 | 44917 ft | 479 kts | 349° |
| 2026-05-04 01:57 | 34.54989 | -106.81922 | 44909 ft | 481 kts | 352° |
| 2026-05-04 01:57 | 34.61677 | -106.81878 | 44902 ft | 480 kts | 350° |
| 2026-05-04 01:58 | 34.68353 | -106.81852 | 44899 ft | 480 kts | 351° |
| 2026-05-04 01:58 | 34.75035 | -106.81800 | 44912 ft | 480 kts | 351° |
| 2026-05-04 01:59 | 34.81705 | -106.81770 | 44947 ft | 480 kts | 351° |
| 2026-05-04 01:59 | 34.88378 | -106.81723 | 44974 ft | 479 kts | 351° |
| 2026-05-04 02:00 | 34.94989 | -106.81688 | 45000 ft | 477 kts | 351° |
| 2026-05-04 02:00 | 35.01635 | -106.81610 | 45045 ft | 481 kts | 354° |
| 2026-05-04 02:01 | 35.08316 | -106.79985 | 45069 ft | 500 kts | 10° |
| 2026-05-04 02:01 | 35.14901 | -106.77189 | 45084 ft | 501 kts | 10° |
| 2026-05-04 02:02 | 35.21488 | -106.74423 | 45079 ft | 500 kts | 10° |
| 2026-05-04 02:02 | 35.28061 | -106.71631 | 45039 ft | 500 kts | 10° |
| 2026-05-04 02:03 | 35.34591 | -106.68871 | 45003 ft | 500 kts | 10° |
| 2026-05-04 02:03 | 35.41159 | -106.66078 | 44959 ft | 500 kts | 10° |
| 2026-05-04 02:04 | 35.47734 | -106.63285 | 44903 ft | 501 kts | 10° |
| 2026-05-04 02:04 | 35.54305 | -106.60484 | 44919 ft | 500 kts | 10° |
| 2026-05-04 02:05 | 35.60877 | -106.57681 | 44932 ft | 499 kts | 10° |
| 2026-05-04 02:05 | 35.67407 | -106.54889 | 44967 ft | 500 kts | 10° |
| 2026-05-04 02:06 | 35.73985 | -106.52073 | 44994 ft | 501 kts | 10° |
| 2026-05-04 02:06 | 35.80573 | -106.49247 | 45028 ft | 503 kts | 10° |
| 2026-05-04 02:07 | 35.87172 | -106.46409 | 45049 ft | 501 kts | 10° |
| 2026-05-04 02:07 | 35.93745 | -106.43583 | 45063 ft | 501 kts | 10° |
| 2026-05-04 02:08 | 36.00321 | -106.40746 | 45051 ft | 501 kts | 10° |
| 2026-05-04 02:08 | 36.06856 | -106.37924 | 45032 ft | 501 kts | 10° |
| 2026-05-04 02:09 | 36.13416 | -106.35084 | 44995 ft | 500 kts | 10° |
| 2026-05-04 02:09 | 36.19973 | -106.32241 | 44960 ft | 499 kts | 10° |
| 2026-05-04 02:10 | 36.26520 | -106.29396 | 44946 ft | 498 kts | 10° |
| 2026-05-04 02:10 | 36.33061 | -106.26550 | 44949 ft | 498 kts | 10° |
| 2026-05-04 02:11 | 36.39546 | -106.23722 | 44951 ft | 497 kts | 10° |
| 2026-05-04 02:11 | 36.46075 | -106.20871 | 44961 ft | 496 kts | 10° |
| 2026-05-04 02:12 | 36.52595 | -106.18020 | 44966 ft | 497 kts | 10° |
| 2026-05-04 02:12 | 36.59130 | -106.15155 | 44974 ft | 499 kts | 10° |
| 2026-05-04 02:13 | 36.65619 | -106.12304 | 44977 ft | 498 kts | 10° |
| 2026-05-04 02:13 | 36.72169 | -106.09425 | 44980 ft | 499 kts | 10° |
| 2026-05-04 02:14 | 36.78719 | -106.06537 | 44987 ft | 500 kts | 10° |
| 2026-05-04 02:14 | 36.85277 | -106.03643 | 44984 ft | 500 kts | 10° |
| 2026-05-04 02:15 | 36.91841 | -106.00739 | 44983 ft | 500 kts | 11° |
| 2026-05-04 02:15 | 36.98359 | -105.97852 | 44975 ft | 500 kts | 11° |
| 2026-05-04 02:16 | 37.04919 | -105.94939 | 44972 ft | 500 kts | 11° |
| 2026-05-04 02:16 | 37.11473 | -105.92025 | 44986 ft | 500 kts | 11° |
| 2026-05-04 02:17 | 37.18030 | -105.89103 | 45011 ft | 500 kts | 11° |
| 2026-05-04 02:17 | 37.24583 | -105.86178 | 45038 ft | 500 kts | 11° |
| 2026-05-04 02:18 | 37.31091 | -105.83267 | 45070 ft | 500 kts | 11° |
| 2026-05-04 02:18 | 37.37682 | -105.80604 | 45084 ft | 494 kts | 6° |
| 2026-05-04 02:19 | 37.44342 | -105.78402 | 45093 ft | 496 kts | 7° |
| 2026-05-04 02:19 | 37.51008 | -105.76132 | 45079 ft | 497 kts | 7° |
| 2026-05-04 02:20 | 37.57693 | -105.73892 | 45050 ft | 497 kts | 7° |
| 2026-05-04 02:20 | 37.64333 | -105.71638 | 45016 ft | 498 kts | 7° |
| 2026-05-04 02:21 | 37.71021 | -105.69377 | 44974 ft | 498 kts | 7° |
| 2026-05-04 02:21 | 37.77720 | -105.67102 | 44934 ft | 499 kts | 7° |
| 2026-05-04 02:22 | 37.84424 | -105.64824 | 44930 ft | 499 kts | 7° |
| 2026-05-04 02:22 | 37.91120 | -105.62542 | 44923 ft | 499 kts | 7° |
| 2026-05-04 02:23 | 37.97780 | -105.60270 | 44914 ft | 500 kts | 7° |
| 2026-05-04 02:23 | 38.04490 | -105.57975 | 44893 ft | 498 kts | 7° |
| 2026-05-04 02:24 | 38.11191 | -105.55681 | 44882 ft | 498 kts | 7° |
| 2026-05-04 02:24 | 38.17885 | -105.53382 | 44868 ft | 498 kts | 7° |
| 2026-05-04 02:25 | 38.24535 | -105.51097 | 44851 ft | 498 kts | 7° |
| 2026-05-04 02:25 | 38.31217 | -105.48794 | 44840 ft | 497 kts | 7° |
| 2026-05-04 02:26 | 38.37898 | -105.46488 | 44825 ft | 497 kts | 8° |
| 2026-05-04 02:26 | 38.44570 | -105.44181 | 44818 ft | 497 kts | 8° |
| 2026-05-04 02:27 | 38.51245 | -105.41868 | 44809 ft | 496 kts | 8° |
| 2026-05-04 02:27 | 38.57856 | -105.39568 | 44803 ft | 496 kts | 8° |
| 2026-05-04 02:28 | 38.64265 | -105.35999 | 44799 ft | 509 kts | 22° |
| 2026-05-04 02:28 | 38.70470 | -105.31643 | 44804 ft | 508 kts | 21° |
| 2026-05-04 02:29 | 38.76683 | -105.27358 | 44805 ft | 507 kts | 22° |
| 2026-05-04 02:29 | 38.82863 | -105.23027 | 44809 ft | 506 kts | 22° |
| 2026-05-04 02:30 | 38.88994 | -105.18763 | 44861 ft | 504 kts | 22° |
| 2026-05-04 02:30 | 38.95143 | -105.14452 | 44908 ft | 503 kts | 22° |
| 2026-05-04 02:31 | 39.01287 | -105.10152 | 44945 ft | 503 kts | 22° |
| 2026-05-04 02:31 | 39.07367 | -105.05878 | 44951 ft | 502 kts | 22° |
| 2026-05-04 02:32 | 39.13513 | -105.01555 | 44943 ft | 502 kts | 22° |
| 2026-05-04 02:32 | 39.19633 | -104.97239 | 44932 ft | 502 kts | 22° |
| 2026-05-04 02:33 | 39.24724 | -104.93642 | 44916 ft | 502 kts | 22° |
| 2026-05-04 02:33 | 39.30847 | -104.89309 | 44922 ft | 502 kts | 22° |
| 2026-05-04 02:34 | 39.37972 | -104.84256 | 44951 ft | 503 kts | 23° |
| 2026-05-04 02:34 | 39.44101 | -104.79900 | 44983 ft | 503 kts | 23° |
| 2026-05-04 02:35 | 39.49193 | -104.76273 | 44997 ft | 503 kts | 23° |
| 2026-05-04 02:35 | 39.55323 | -104.71899 | 44999 ft | 503 kts | 23° |
| 2026-05-04 02:36 | 39.61444 | -104.67523 | 44970 ft | 502 kts | 23° |
| 2026-05-04 02:36 | 39.67259 | -104.62404 | 44955 ft | 513 kts | 37° |
| 2026-05-04 02:37 | 39.71807 | -104.55170 | 44981 ft | 524 kts | 55° |
| 2026-05-04 02:37 | 39.74935 | -104.46655 | 44998 ft | 528 kts | 64° |
| 2026-05-04 02:38 | 39.77910 | -104.37944 | 44978 ft | 526 kts | 59° |
| 2026-05-04 02:38 | 39.81247 | -104.29511 | 44939 ft | 527 kts | 61° |
| 2026-05-04 02:39 | 39.84304 | -104.20848 | 44898 ft | 527 kts | 60° |
| 2026-05-04 02:39 | 39.87533 | -104.12368 | 44857 ft | 527 kts | 60° |
| 2026-05-04 02:40 | 39.90649 | -104.03726 | 44837 ft | 527 kts | 61° |
| 2026-05-04 02:40 | 39.93840 | -103.95130 | 44839 ft | 527 kts | 60° |
| 2026-05-04 02:41 | 39.96976 | -103.86499 | 44817 ft | 528 kts | 61° |
| 2026-05-04 02:41 | 40.00135 | -103.77863 | 44830 ft | 527 kts | 60° |
| 2026-05-04 02:42 | 40.03253 | -103.69277 | 44839 ft | 527 kts | 61° |
| 2026-05-04 02:42 | 40.06389 | -103.60628 | 44844 ft | 527 kts | 61° |
| 2026-05-04 02:43 | 40.09519 | -103.51969 | 44867 ft | 527 kts | 61° |
| 2026-05-04 02:43 | 40.12640 | -103.43307 | 44901 ft | 527 kts | 61° |
| 2026-05-04 02:44 | 40.15757 | -103.34632 | 44920 ft | 527 kts | 61° |
| 2026-05-04 02:44 | 40.18845 | -103.26011 | 44923 ft | 527 kts | 61° |
| 2026-05-04 02:45 | 40.21943 | -103.17338 | 44926 ft | 526 kts | 61° |
| 2026-05-04 02:45 | 40.25029 | -103.08671 | 44913 ft | 525 kts | 61° |
| 2026-05-04 02:46 | 40.28105 | -103.00003 | 44884 ft | 524 kts | 61° |
| 2026-05-04 02:46 | 40.31151 | -102.91399 | 44858 ft | 524 kts | 61° |
| 2026-05-04 02:47 | 40.34208 | -102.82736 | 44831 ft | 524 kts | 62° |
| 2026-05-04 02:47 | 40.37257 | -102.74070 | 44830 ft | 523 kts | 62° |
| 2026-05-04 02:48 | 40.40298 | -102.65398 | 44832 ft | 523 kts | 62° |
| 2026-05-04 02:48 | 40.43332 | -102.56722 | 44830 ft | 523 kts | 62° |
| 2026-05-04 02:49 | 40.46337 | -102.48103 | 44838 ft | 523 kts | 62° |
| 2026-05-04 02:49 | 40.49363 | -102.39397 | 44833 ft | 524 kts | 62° |
| 2026-05-04 02:50 | 40.52382 | -102.30683 | 44836 ft | 525 kts | 62° |
| 2026-05-04 02:50 | 40.55397 | -102.21956 | 44840 ft | 524 kts | 62° |
| 2026-05-04 02:51 | 40.58387 | -102.13274 | 44840 ft | 525 kts | 62° |
| 2026-05-04 02:51 | 40.61391 | -102.04521 | 44842 ft | 525 kts | 62° |
| 2026-05-04 02:52 | 40.64388 | -101.95765 | 44849 ft | 525 kts | 62° |
| 2026-05-04 02:52 | 40.67379 | -101.87001 | 44862 ft | 524 kts | 63° |
| 2026-05-04 02:53 | 40.70357 | -101.78244 | 44868 ft | 524 kts | 63° |
| 2026-05-04 02:53 | 40.73305 | -101.69550 | 44870 ft | 523 kts | 63° |
| 2026-05-04 02:54 | 40.76265 | -101.60792 | 44872 ft | 523 kts | 63° |
| 2026-05-04 02:54 | 40.79220 | -101.52023 | 44864 ft | 523 kts | 63° |
| 2026-05-04 02:55 | 40.83637 | -101.38863 | 44858 ft | 523 kts | 63° |
| 2026-05-04 02:56 | 40.86557 | -101.30130 | 44851 ft | 523 kts | 63° |
| 2026-05-04 02:56 | 40.89491 | -101.21326 | 44850 ft | 524 kts | 63° |
| 2026-05-04 02:57 | 40.92420 | -101.12509 | 44849 ft | 524 kts | 63° |
| 2026-05-04 02:57 | 40.95345 | -101.03677 | 44845 ft | 525 kts | 63° |
| 2026-05-04 02:58 | 40.98267 | -100.94825 | 44842 ft | 525 kts | 63° |
| 2026-05-04 02:58 | 41.01638 | -100.86395 | 44845 ft | 518 kts | 50° |
| 2026-05-04 02:59 | 41.06570 | -100.79647 | 44858 ft | 505 kts | 32° |
| 2026-05-04 02:59 | 41.12627 | -100.75265 | 44863 ft | 490 kts | 14° |
| 2026-05-04 03:00 | 41.19193 | -100.73598 | 44876 ft | 475 kts | 356° |
| 2026-05-04 03:00 | 41.25695 | -100.73992 | 44872 ft | 470 kts | 350° |
| 2026-05-04 03:01 | 41.32256 | -100.74173 | 44856 ft | 475 kts | 357° |
| 2026-05-04 03:01 | 41.38847 | -100.73723 | 44849 ft | 472 kts | 355° |
| 2026-05-04 03:02 | 41.45431 | -100.72982 | 44825 ft | 483 kts | 7° |
| 2026-05-04 03:02 | 41.51686 | -100.69585 | 44824 ft | 498 kts | 25° |
| 2026-05-04 03:03 | 41.57082 | -100.63641 | 44827 ft | 512 kts | 43° |
| 2026-05-04 03:03 | 41.61192 | -100.55779 | 44850 ft | 519 kts | 54° |
| 2026-05-04 03:04 | 41.65007 | -100.47581 | 44860 ft | 518 kts | 53° |
| 2026-05-04 03:04 | 41.68889 | -100.39453 | 44858 ft | 519 kts | 53° |
| 2026-05-04 03:05 | 41.72708 | -100.31260 | 44858 ft | 518 kts | 53° |
| 2026-05-04 03:05 | 41.76531 | -100.23160 | 44846 ft | 518 kts | 53° |
| 2026-05-04 03:06 | 41.80347 | -100.14972 | 44841 ft | 518 kts | 53° |
| 2026-05-04 03:06 | 41.84171 | -100.06796 | 44831 ft | 517 kts | 53° |
| 2026-05-04 03:07 | 41.87979 | -99.98602 | 44839 ft | 517 kts | 53° |
| 2026-05-04 03:07 | 41.91784 | -99.90407 | 44834 ft | 517 kts | 53° |
| 2026-05-04 03:08 | 41.95556 | -99.82254 | 44832 ft | 517 kts | 53° |
| 2026-05-04 03:08 | 41.99349 | -99.74039 | 44837 ft | 517 kts | 53° |
| 2026-05-04 03:09 | 42.03131 | -99.65820 | 44835 ft | 517 kts | 53° |
| 2026-05-04 03:09 | 42.06909 | -99.57591 | 44837 ft | 517 kts | 53° |
| 2026-05-04 03:10 | 42.10677 | -99.49360 | 44836 ft | 516 kts | 53° |
| 2026-05-04 03:10 | 42.14411 | -99.41180 | 44840 ft | 516 kts | 54° |
| 2026-05-04 03:11 | 42.18164 | -99.32937 | 44843 ft | 516 kts | 54° |
| 2026-05-04 03:11 | 42.22081 | -99.24872 | 44815 ft | 510 kts | 46° |
| 2026-05-04 03:12 | 42.27240 | -99.18554 | 44828 ft | 496 kts | 28° |
| 2026-05-04 03:12 | 42.33267 | -99.14401 | 44852 ft | 488 kts | 19° |
| 2026-05-04 03:13 | 42.39386 | -99.10326 | 44848 ft | 491 kts | 23° |
| 2026-05-04 03:13 | 42.45437 | -99.06063 | 44846 ft | 489 kts | 20° |
| 2026-05-04 03:14 | 42.51543 | -99.01959 | 44848 ft | 491 kts | 22° |
| 2026-05-04 03:14 | 42.57570 | -98.97735 | 44843 ft | 490 kts | 21° |
| 2026-05-04 03:15 | 42.63668 | -98.93574 | 44843 ft | 491 kts | 22° |
| 2026-05-04 03:15 | 42.69751 | -98.89332 | 44839 ft | 491 kts | 22° |
| 2026-05-04 03:16 | 42.75844 | -98.85126 | 44835 ft | 492 kts | 22° |
| 2026-05-04 03:16 | 42.81935 | -98.80881 | 44830 ft | 492 kts | 22° |
| 2026-05-04 03:17 | 42.87987 | -98.76671 | 44828 ft | 492 kts | 22° |
| 2026-05-04 03:17 | 42.94083 | -98.72411 | 44828 ft | 492 kts | 22° |
| 2026-05-04 03:18 | 43.00179 | -98.68146 | 44821 ft | 492 kts | 22° |
| 2026-05-04 03:18 | 43.06277 | -98.63869 | 44817 ft | 492 kts | 22° |
| 2026-05-04 03:19 | 43.12332 | -98.59613 | 44815 ft | 493 kts | 22° |
| 2026-05-04 03:19 | 43.18422 | -98.55322 | 44808 ft | 491 kts | 22° |
| 2026-05-04 03:19 | 43.21435 | -98.53192 | 44111 ft | 484 kts | 22° |
| 2026-05-04 03:20 | 43.24395 | -98.51100 | 43500 ft | 474 kts | 22° |
| 2026-05-04 03:20 | 43.27302 | -98.49044 | 42890 ft | 465 kts | 22° |
| 2026-05-04 03:20 | 43.30154 | -98.47026 | 42286 ft | 457 kts | 22° |
| 2026-05-04 03:20 | 43.32955 | -98.45040 | 41686 ft | 449 kts | 22° |
| 2026-05-04 03:21 | 43.35674 | -98.43112 | 41110 ft | 443 kts | 22° |
| 2026-05-04 03:21 | 43.38403 | -98.41175 | 40528 ft | 441 kts | 22° |
| 2026-05-04 03:21 | 43.41127 | -98.39241 | 39952 ft | 440 kts | 22° |
| 2026-05-04 03:21 | 43.43848 | -98.37305 | 39377 ft | 441 kts | 22° |
| 2026-05-04 03:22 | 43.46580 | -98.35358 | 38794 ft | 442 kts | 22° |
| 2026-05-04 03:22 | 43.49315 | -98.33408 | 38151 ft | 443 kts | 22° |
| 2026-05-04 03:22 | 43.52045 | -98.31458 | 37571 ft | 441 kts | 22° |
| 2026-05-04 03:22 | 43.54775 | -98.29508 | 36982 ft | 442 kts | 22° |
| 2026-05-04 03:23 | 43.57509 | -98.27554 | 36397 ft | 444 kts | 23° |
| 2026-05-04 03:23 | 43.60212 | -98.25618 | 35814 ft | 444 kts | 23° |
| 2026-05-04 03:23 | 43.62953 | -98.23651 | 35227 ft | 444 kts | 23° |
| 2026-05-04 03:23 | 43.65688 | -98.21688 | 34640 ft | 443 kts | 24° |
| 2026-05-04 03:24 | 43.68418 | -98.19729 | 34055 ft | 442 kts | 24° |
| 2026-05-04 03:24 | 43.71141 | -98.17772 | 33425 ft | 440 kts | 24° |
| 2026-05-04 03:24 | 43.73855 | -98.15817 | 32853 ft | 440 kts | 24° |
| 2026-05-04 03:24 | 43.76577 | -98.13856 | 32264 ft | 442 kts | 24° |
| 2026-05-04 03:25 | 43.79311 | -98.11885 | 31685 ft | 444 kts | 24° |
| 2026-05-04 03:25 | 43.82055 | -98.09904 | 31095 ft | 446 kts | 24° |
| 2026-05-04 03:25 | 43.84805 | -98.07915 | 30509 ft | 447 kts | 24° |
| 2026-05-04 03:25 | 43.87528 | -98.05945 | 29921 ft | 447 kts | 24° |
| 2026-05-04 03:26 | 43.90265 | -98.03961 | 29287 ft | 441 kts | 24° |
| 2026-05-04 03:26 | 43.92974 | -98.01996 | 28711 ft | 438 kts | 24° |
| 2026-05-04 03:26 | 43.95662 | -98.00047 | 28137 ft | 435 kts | 24° |
| 2026-05-04 03:26 | 43.98339 | -97.98103 | 27563 ft | 432 kts | 24° |
| 2026-05-04 03:27 | 44.00994 | -97.96172 | 26991 ft | 430 kts | 24° |
| 2026-05-04 03:27 | 44.03634 | -97.94249 | 26424 ft | 427 kts | 24° |
| 2026-05-04 03:27 | 44.06224 | -97.92362 | 25876 ft | 425 kts | 24° |
| 2026-05-04 03:27 | 44.08832 | -97.90460 | 25314 ft | 423 kts | 24° |
| 2026-05-04 03:28 | 44.11433 | -97.88561 | 24751 ft | 421 kts | 24° |
| 2026-05-04 03:28 | 44.14017 | -97.86671 | 24203 ft | 419 kts | 24° |
| 2026-05-04 03:28 | 44.16590 | -97.84788 | 23641 ft | 417 kts | 24° |
| 2026-05-04 03:28 | 44.19150 | -97.82915 | 23058 ft | 415 kts | 24° |
| 2026-05-04 03:29 | 44.21694 | -97.81049 | 22505 ft | 412 kts | 24° |
| 2026-05-04 03:29 | 44.24227 | -97.79190 | 21963 ft | 410 kts | 24° |
| 2026-05-04 03:29 | 44.26714 | -97.77364 | 21432 ft | 408 kts | 24° |
| 2026-05-04 03:29 | 44.29221 | -97.75521 | 20895 ft | 406 kts | 24° |
| 2026-05-04 03:30 | 44.31713 | -97.73687 | 20358 ft | 404 kts | 24° |
| 2026-05-04 03:30 | 44.34195 | -97.71859 | 19828 ft | 403 kts | 24° |
| 2026-05-04 03:30 | 44.36670 | -97.70034 | 19294 ft | 401 kts | 24° |
| 2026-05-04 03:30 | 44.39126 | -97.68221 | 18767 ft | 399 kts | 24° |
| 2026-05-04 03:31 | 44.41570 | -97.66415 | 18243 ft | 397 kts | 24° |
| 2026-05-04 03:31 | 44.43999 | -97.64618 | 17915 ft | 392 kts | 24° |
| 2026-05-04 03:31 | 44.46429 | -97.62821 | 17426 ft | 394 kts | 24° |
| 2026-05-04 03:31 | 44.48798 | -97.61065 | 16916 ft | 389 kts | 24° |
| 2026-05-04 03:32 | 44.51181 | -97.59296 | 16389 ft | 386 kts | 24° |
| 2026-05-04 03:32 | 44.53545 | -97.57543 | 15880 ft | 383 kts | 24° |
| 2026-05-04 03:32 | 44.55889 | -97.55802 | 15371 ft | 380 kts | 24° |
| 2026-05-04 03:32 | 44.58214 | -97.54072 | 14871 ft | 377 kts | 24° |
| 2026-05-04 03:33 | 44.60524 | -97.52353 | 14379 ft | 374 kts | 24° |
| 2026-05-04 03:33 | 44.62815 | -97.50647 | 13887 ft | 372 kts | 24° |
| 2026-05-04 03:33 | 44.65088 | -97.48951 | 13378 ft | 369 kts | 24° |
| 2026-05-04 03:33 | 44.67341 | -97.47269 | 12877 ft | 366 kts | 24° |
| 2026-05-04 03:34 | 44.69550 | -97.45619 | 12399 ft | 363 kts | 24° |
| 2026-05-04 03:34 | 44.71776 | -97.43957 | 11917 ft | 361 kts | 23° |
| 2026-05-04 03:34 | 44.73984 | -97.42304 | 11442 ft | 359 kts | 23° |
| 2026-05-04 03:34 | 44.76115 | -97.40699 | 10985 ft | 328 kts | 23° |
| 2026-05-04 03:35 | 44.78034 | -97.39249 | 10562 ft | 307 kts | 22° |
| 2026-05-04 03:35 | 44.79905 | -97.37863 | 10150 ft | 301 kts | 22° |
| 2026-05-04 03:35 | 44.81733 | -97.36498 | 9765 ft | 295 kts | 22° |
| 2026-05-04 03:35 | 44.83535 | -97.35141 | 9358 ft | 292 kts | 22° |
| 2026-05-04 03:36 | 44.85321 | -97.33796 | 8973 ft | 290 kts | 22° |
| 2026-05-04 03:36 | 44.87103 | -97.32458 | 8583 ft | 290 kts | 22° |
| 2026-05-04 03:36 | 44.88859 | -97.31138 | 8214 ft | 290 kts | 22° |
| 2026-05-04 03:36 | 44.90635 | -97.29800 | 7829 ft | 289 kts | 23° |
| 2026-05-04 03:37 | 44.92408 | -97.28463 | 7450 ft | 289 kts | 22° |
| 2026-05-04 03:37 | 44.94175 | -97.27130 | 7071 ft | 288 kts | 23° |
| 2026-05-04 03:37 | 44.95944 | -97.25794 | 6694 ft | 288 kts | 22° |
| 2026-05-04 03:37 | 44.97708 | -97.24462 | 6312 ft | 287 kts | 22° |
| 2026-05-04 03:38 | 44.99460 | -97.23135 | 5933 ft | 286 kts | 23° |
| 2026-05-04 03:38 | 45.01211 | -97.21812 | 5540 ft | 285 kts | 23° |
| 2026-05-04 03:38 | 45.02961 | -97.20490 | 5168 ft | 285 kts | 23° |
| 2026-05-04 03:38 | 45.04688 | -97.19182 | 4792 ft | 285 kts | 24° |
| 2026-05-04 03:39 | 45.06440 | -97.17850 | 4416 ft | 284 kts | 24° |
| 2026-05-04 03:39 | 45.08159 | -97.16544 | 4045 ft | 276 kts | 24° |
| 2026-05-04 03:39 | 45.09790 | -97.15305 | 3665 ft | 258 kts | 24° |
| 2026-05-04 03:39 | 45.11362 | -97.14425 | 3534 ft | 230 kts | 4° |
| 2026-05-04 03:40 | 45.12941 | -97.14446 | 3600 ft | 230 kts | 349° |
| 2026-05-04 03:40 | 45.14535 | -97.14566 | 3591 ft | 230 kts | 350° |
| 2026-05-04 03:40 | 45.16139 | -97.14668 | 3604 ft | 232 kts | 351° |
| 2026-05-04 03:40 | 45.17746 | -97.14775 | 3608 ft | 231 kts | 350° |
| 2026-05-04 03:41 | 45.19358 | -97.14891 | 3576 ft | 231 kts | 350° |
| 2026-05-04 03:41 | 45.20925 | -97.15134 | 3544 ft | 227 kts | 338° |
| 2026-05-04 03:41 | 45.22243 | -97.16182 | 3561 ft | 214 kts | 313° |
| 2026-05-04 03:41 | 45.23128 | -97.17800 | 3568 ft | 205 kts | 291° |
| 2026-05-04 03:42 | 45.23500 | -97.19703 | 3574 ft | 199 kts | 271° |
| 2026-05-04 03:42 | 45.23353 | -97.21628 | 3570 ft | 196 kts | 253° |
| 2026-05-04 03:42 | 45.22724 | -97.23335 | 3571 ft | 196 kts | 234° |
| 2026-05-04 03:42 | 45.21685 | -97.24615 | 3581 ft | 202 kts | 215° |
| 2026-05-04 03:43 | 45.20350 | -97.25263 | 3586 ft | 208 kts | 195° |
| 2026-05-04 03:43 | 45.18895 | -97.25138 | 3564 ft | 218 kts | 173° |
| 2026-05-04 03:43 | 45.17527 | -97.24138 | 3573 ft | 229 kts | 148° |
| 2026-05-04 03:43 | 45.16408 | -97.22472 | 3603 ft | 235 kts | 138° |
| 2026-05-04 03:44 | 45.15324 | -97.20744 | 3597 ft | 231 kts | 139° |
| 2026-05-04 03:44 | 45.14312 | -97.19147 | 3591 ft | 205 kts | 139° |
| 2026-05-04 03:44 | 45.13371 | -97.17688 | 3572 ft | 198 kts | 140° |
| 2026-05-04 03:44 | 45.12439 | -97.16278 | 3581 ft | 193 kts | 143° |
| 2026-05-04 03:45 | 45.11314 | -97.15306 | 3565 ft | 186 kts | 167° |
| 2026-05-04 03:45 | 45.10085 | -97.14974 | 3591 ft | 179 kts | 184° |
| 2026-05-04 03:45 | 45.08860 | -97.14986 | 3611 ft | 179 kts | 189° |
| 2026-05-04 03:45 | 45.07612 | -97.15013 | 3610 ft | 179 kts | 188° |
| 2026-05-04 03:46 | 45.06369 | -97.15020 | 3612 ft | 178 kts | 187° |
| 2026-05-04 03:46 | 45.05120 | -97.15031 | 3620 ft | 181 kts | 187° |
| 2026-05-04 03:46 | 45.03861 | -97.15036 | 3593 ft | 179 kts | 187° |
| 2026-05-04 03:46 | 45.02613 | -97.15040 | 3593 ft | 182 kts | 188° |
| 2026-05-04 03:47 | 45.01332 | -97.15051 | 3470 ft | 184 kts | 187° |
| 2026-05-04 03:47 | 45.00159 | -97.15045 | 3311 ft | 151 kts | 188° |
| 2026-05-04 03:47 | 44.99193 | -97.15046 | 3172 ft | 131 kts | 190° |
| 2026-05-04 03:47 | 44.98313 | -97.15058 | 3018 ft | 127 kts | 190° |
| 2026-05-04 03:48 | 44.97445 | -97.15067 | 2861 ft | 123 kts | 191° |
| 2026-05-04 03:48 | 44.96585 | -97.15079 | 2687 ft | 125 kts | 188° |
| 2026-05-04 03:48 | 44.95706 | -97.15086 | 2508 ft | 128 kts | 186° |
| 2026-05-04 03:48 | 44.94804 | -97.15113 | 2306 ft | 131 kts | 184° |
| 2026-05-04 03:49 | 44.93911 | -97.15117 | 2143 ft | 126 kts | 181° |
| 2026-05-04 03:49 | 44.93038 | -97.15108 | 1972 ft | 125 kts | 181° |
| 2026-05-04 03:49 | 44.92166 | -97.15108 | 1812 ft | 125 kts | 181° |
| 2026-05-04 03:49 | 44.91322 | -97.15114 | 1741 ft | 111 kts | 180° |
| 2026-05-04 03:50 | 44.90713 | -97.15116 | 1747 ft | 59 kts | 180° |
| 2026-05-04 03:50 | 44.90456 | -97.15118 | 1748 ft | 28 kts | 180° |
| 2026-05-04 03:50 | 44.90288 | -97.15119 | 1745 ft | 20 kts | 180° |
| 2026-05-04 03:50 | 44.90182 | -97.15155 | 1748 ft | 15 kts | 240° |
| 2026-05-04 03:51 | 44.90203 | -97.15271 | 1748 ft | 13 kts | 349° |
| 2026-05-04 03:51 | 44.90289 | -97.15271 | 1748 ft | 13 kts | 0° |
| 2026-05-04 03:51 | 44.90391 | -97.15270 | 1744 ft | 16 kts | 0° |
| 2026-05-04 03:51 | 44.90513 | -97.15268 | 1747 ft | 19 kts | 0° |
| 2026-05-04 03:52 | 44.90654 | -97.15268 | 1746 ft | 22 kts | 0° |
| 2026-05-04 03:52 | 44.90813 | -97.15268 | 1745 ft | 25 kts | 0° |
| 2026-05-04 03:52 | 44.90994 | -97.15267 | 1744 ft | 27 kts | 360° |
| 2026-05-04 03:52 | 44.91179 | -97.15266 | 1743 ft | 26 kts | 1° |
| 2026-05-04 03:53 | 44.91358 | -97.15264 | 1741 ft | 25 kts | 359° |
| 2026-05-04 03:53 | 44.91525 | -97.15268 | 1741 ft | 21 kts | 1° |
| 2026-05-04 03:53 | 44.91624 | -97.15346 | 1745 ft | 16 kts | 304° |
| 2026-05-04 03:53 | 44.91687 | -97.15473 | 1745 ft | 15 kts | 309° |
| 2026-05-04 03:54 | 44.91745 | -97.15593 | 1746 ft | 15 kts | 304° |
| 2026-05-04 03:54 | 44.91803 | -97.15710 | 1747 ft | 14 kts | 304° |
| 2026-05-04 03:54 | 44.91859 | -97.15824 | 1747 ft | 14 kts | 306° |
| 2026-05-04 03:54 | 44.91918 | -97.15942 | 1748 ft | 14 kts | 304° |
| 2026-05-04 03:55 | 44.91970 | -97.16048 | 1749 ft | 10 kts | 304° |
| 2026-05-04 03:55 | 44.92023 | -97.16089 | 1749 ft | 8 kts | 17° |
| 2026-05-04 03:55 | 44.92049 | -97.16025 | 1749 ft | 7 kts | 90° |
| 2026-05-04 03:55 | 44.92024 | -97.16003 | 1743 ft | 4 kts | 204° |
| 2026-05-04 03:56 | 44.92011 | -97.16013 | 1744 ft | 0 kts | 208° |